createdAt,value
2023-03-26T00:02:57.707Z,94442.00
2023-03-26T00:06:57.773Z,94448.00
2023-03-26T00:10:59.024Z,94440.00
2023-03-26T00:14:58.001Z,94442.00
2023-03-26T00:18:58.114Z,94444.00
2023-03-26T00:22:58.220Z,94440.00
2023-03-26T00:26:58.357Z,94440.00
2023-03-26T00:30:58.907Z,94442.00
2023-03-26T00:34:58.527Z,94448.00
2023-03-26T00:38:58.685Z,94438.00
2023-03-26T00:42:58.778Z,94424.00
2023-03-26T00:46:58.908Z,94426.00
2023-03-26T00:50:59.029Z,94422.00
2023-03-26T00:54:59.235Z,94424.00
2023-03-26T00:58:59.303Z,94422.00
2023-03-26T01:02:59.642Z,94421.00
2023-03-26T01:06:59.568Z,94417.00
2023-03-26T01:10:59.776Z,94403.00
2023-03-26T01:14:59.943Z,94403.00
2023-03-26T01:19:00.144Z,94403.00
2023-03-26T01:23:00.177Z,94409.00
2023-03-26T01:27:00.316Z,94411.00
2023-03-26T01:31:00.513Z,94407.00
2023-03-26T01:35:00.701Z,94391.00
2023-03-26T01:39:00.925Z,94389.00
2023-03-26T01:43:00.935Z,94375.00
2023-03-26T01:47:01.253Z,94383.00
2023-03-26T01:51:01.268Z,94385.00
2023-03-26T01:55:01.416Z,94385.00
2023-03-26T01:59:01.555Z,94387.00
2023-03-26T02:03:01.881Z,94393.00
2023-03-26T02:07:01.972Z,94391.00
2023-03-26T02:11:02.089Z,94393.00
2023-03-26T02:15:02.241Z,94399.00
2023-03-26T02:19:02.477Z,94411.00
2023-03-26T02:23:02.628Z,94399.00
2023-03-26T02:27:02.821Z,94395.00
2023-03-26T02:31:02.979Z,94395.00
2023-03-26T02:35:03.183Z,94393.00
2023-03-26T02:39:03.367Z,94389.00
2023-03-26T02:43:03.582Z,94385.00
2023-03-26T02:47:03.796Z,94381.00
2023-03-26T02:51:03.939Z,94379.00
2023-03-26T02:55:04.148Z,94381.00
2023-03-26T02:59:04.289Z,94389.00
2023-03-26T03:03:04.617Z,94379.00
2023-03-26T03:07:04.708Z,94368.00
2023-03-26T03:11:04.987Z,94368.00
2023-03-26T03:15:05.155Z,94358.00
2023-03-26T03:19:05.355Z,94344.00
2023-03-26T03:23:05.535Z,94350.00
2023-03-26T03:27:05.824Z,94352.00
2023-03-26T03:31:06.071Z,94338.00
2023-03-26T03:35:06.172Z,94332.00
2023-03-26T03:39:06.401Z,94327.00
2023-03-26T03:43:06.666Z,94327.00
2023-03-26T03:47:06.583Z,94330.00
2023-03-26T03:51:06.563Z,94334.00
2023-03-26T03:55:06.523Z,94325.00
2023-03-26T03:59:06.471Z,94319.00
2023-03-26T04:03:06.692Z,94311.00
2023-03-26T04:07:06.407Z,94317.00
2023-03-26T04:11:06.427Z,94317.00
2023-03-26T04:15:06.301Z,94315.00
2023-03-26T04:19:06.303Z,94311.00
2023-03-26T04:23:06.302Z,94309.00
2023-03-26T04:27:06.988Z,94299.00
2023-03-26T04:31:06.231Z,94283.00
2023-03-26T04:35:06.172Z,94285.00
2023-03-26T04:39:06.304Z,94281.00
2023-03-26T04:43:06.113Z,94283.00
2023-03-26T04:47:06.047Z,94277.00
2023-03-26T04:51:06.072Z,94264.00
2023-03-26T04:55:06.275Z,94262.00
2023-03-26T04:59:06.278Z,94254.00
2023-03-26T05:03:06.264Z,94254.00
2023-03-26T05:07:06.200Z,94244.00
2023-03-26T05:11:06.097Z,94242.00
2023-03-26T05:15:06.042Z,94242.00
2023-03-26T05:19:06.030Z,94250.00
2023-03-26T05:23:05.953Z,94262.00
2023-03-26T05:27:05.947Z,94258.00
2023-03-26T05:31:05.947Z,94254.00
2023-03-26T05:35:05.874Z,94250.00
2023-03-26T05:39:05.853Z,94244.00
2023-03-26T05:43:05.812Z,94238.00
2023-03-26T05:47:05.754Z,94228.00
2023-03-26T05:51:05.717Z,94217.00
2023-03-26T05:55:05.784Z,94211.00
2023-03-26T05:59:05.843Z,94205.00
2023-03-26T06:03:06.071Z,94197.00
2023-03-26T06:07:06.091Z,94193.00
2023-03-26T06:11:06.213Z,94191.00
2023-03-26T06:15:06.393Z,94181.00
2023-03-26T06:19:06.622Z,94181.00
2023-03-26T06:23:06.499Z,94178.00
2023-03-26T06:27:06.472Z,94174.00
2023-03-26T06:31:06.456Z,94162.00
2023-03-26T06:35:06.429Z,94164.00
2023-03-26T06:39:07.812Z,94164.00
2023-03-26T06:43:08.643Z,94152.00
2023-03-26T06:47:06.275Z,94158.00
2023-03-26T06:51:06.551Z,94140.00
2023-03-26T06:55:06.227Z,94131.00
2023-03-26T06:59:06.189Z,94134.00
2023-03-26T07:03:06.266Z,94133.00
2023-03-26T07:07:06.184Z,94111.00
2023-03-26T07:11:06.258Z,94087.00
2023-03-26T07:15:06.095Z,94076.00
2023-03-26T07:19:06.070Z,94062.00
2023-03-26T07:23:06.033Z,94048.00
2023-03-26T07:27:05.946Z,94052.00
2023-03-26T07:31:05.940Z,94070.00
2023-03-26T07:35:05.907Z,94068.00
2023-03-26T07:39:05.890Z,94058.00
2023-03-26T07:43:05.873Z,94050.00
2023-03-26T07:47:05.823Z,94052.00
2023-03-26T07:51:05.766Z,94033.00
2023-03-26T07:55:06.048Z,94001.00
2023-03-26T07:59:05.785Z,93999.00
2023-03-26T08:03:05.927Z,93970.00
2023-03-26T08:07:05.875Z,93958.00
2023-03-26T08:11:05.958Z,93948.00
2023-03-26T08:15:05.999Z,93940.00
2023-03-26T08:19:05.963Z,93948.00
2023-03-26T08:23:05.935Z,93954.00
2023-03-26T08:27:05.960Z,93946.00
2023-03-26T08:31:06.122Z,93927.00
2023-03-26T08:35:05.920Z,93919.00
2023-03-26T08:39:05.936Z,93905.00
2023-03-26T08:43:05.966Z,93891.00
2023-03-26T08:47:06.048Z,93889.00
2023-03-26T08:51:06.265Z,93884.00
2023-03-26T08:55:06.236Z,93862.00
2023-03-26T08:59:06.167Z,93868.00
2023-03-26T09:03:06.173Z,93842.00
2023-03-26T09:07:06.066Z,93842.00
2023-03-26T09:11:06.049Z,93862.00
2023-03-26T09:15:06.085Z,93850.00
2023-03-26T09:19:06.009Z,93846.00
2023-03-26T09:23:05.978Z,93866.00
2023-03-26T09:27:05.907Z,93864.00
2023-03-26T09:31:06.078Z,93874.00
2023-03-26T09:35:05.963Z,93868.00
2023-03-26T09:39:05.952Z,93864.00
2023-03-26T09:43:05.944Z,93850.00
2023-03-26T09:47:05.873Z,93844.00
2023-03-26T09:51:05.812Z,93827.00
2023-03-26T09:55:05.756Z,93817.00
2023-03-26T09:59:05.825Z,93811.00
2023-03-26T10:03:05.790Z,93801.00
2023-03-26T10:07:05.717Z,93799.00
2023-03-26T10:11:05.632Z,93790.00
2023-03-26T10:15:05.633Z,93797.00
2023-03-26T10:19:05.648Z,93788.00
2023-03-26T10:23:05.570Z,93782.00
2023-03-26T10:27:10.192Z,93772.00
2023-03-26T10:31:06.709Z,93780.00
2023-03-26T10:35:05.620Z,93782.00
2023-03-26T10:39:05.577Z,93782.00
2023-03-26T10:43:05.658Z,93782.00
2023-03-26T10:47:05.785Z,93782.00
2023-03-26T10:51:05.922Z,93776.00
2023-03-26T10:55:06.043Z,93772.00
2023-03-26T10:59:06.114Z,93778.00
2023-03-26T11:03:06.312Z,93778.00
2023-03-26T11:07:06.332Z,93770.00
2023-03-26T11:11:06.479Z,93766.00
2023-03-26T11:15:06.440Z,93760.00
2023-03-26T11:19:06.503Z,93752.00
2023-03-26T11:23:06.538Z,93738.00
2023-03-26T11:27:15.306Z,93735.00
2023-03-26T11:31:07.478Z,93733.00
2023-03-26T11:35:06.453Z,93729.00
2023-03-26T11:39:06.451Z,93717.00
2023-03-26T11:43:06.383Z,93713.00
2023-03-26T11:47:06.365Z,93701.00
2023-03-26T11:51:06.355Z,93691.00
2023-03-26T11:55:06.309Z,93682.00
2023-03-26T11:59:06.393Z,93680.00
2023-03-26T12:03:06.400Z,93682.00
2023-03-26T12:07:06.422Z,93678.00
2023-03-26T12:11:06.553Z,93670.00
2023-03-26T12:15:06.624Z,93660.00
2023-03-26T12:19:06.601Z,93644.00
2023-03-26T12:23:06.656Z,93648.00
2023-03-26T12:27:06.580Z,93650.00
2023-03-26T12:31:06.663Z,93656.00
2023-03-26T12:35:06.625Z,93660.00
2023-03-26T12:39:16.954Z,93668.00
2023-03-26T12:44:49.409Z,93666.00
2023-03-26T12:47:57.090Z,93666.00
2023-03-26T12:51:07.657Z,93668.00
2023-03-26T12:55:11.839Z,93676.00
2023-03-26T12:59:07.429Z,93680.00
2023-03-26T13:03:06.541Z,93695.00
2023-03-26T13:07:06.358Z,93713.00
2023-03-26T13:11:06.360Z,93725.00
2023-03-26T13:15:06.366Z,93748.00
2023-03-26T13:19:06.491Z,93744.00
2023-03-26T13:23:06.632Z,93746.00
2023-03-26T13:27:06.760Z,93750.00
2023-03-26T13:31:06.902Z,93746.00
2023-03-26T13:35:07.056Z,93754.00
2023-03-26T13:39:07.180Z,93754.00
2023-03-26T13:43:07.388Z,93744.00
2023-03-26T13:47:07.533Z,93742.00
2023-03-26T13:51:07.749Z,93746.00
2023-03-26T13:55:07.909Z,93735.00
2023-03-26T13:59:08.102Z,93731.00
2023-03-26T14:03:08.357Z,93733.00
2023-03-26T14:07:08.568Z,93733.00
2023-03-26T14:11:08.810Z,93737.00
2023-03-26T14:15:08.968Z,93740.00
2023-03-26T14:19:08.944Z,93737.00
2023-03-26T14:23:08.890Z,93740.00
2023-03-26T14:27:08.839Z,93735.00
2023-03-26T14:31:08.838Z,93729.00
2023-03-26T14:35:08.757Z,93727.00
2023-03-26T14:39:08.770Z,93715.00
2023-03-26T14:43:08.755Z,93711.00
2023-03-26T14:47:08.797Z,93709.00
2023-03-26T14:51:08.599Z,93697.00
2023-03-26T14:55:08.795Z,93715.00
2023-03-26T14:59:09.002Z,93727.00
2023-03-26T15:03:09.215Z,93723.00
2023-03-26T15:07:09.379Z,93731.00
2023-03-26T15:11:09.464Z,93740.00
2023-03-26T15:15:09.464Z,93727.00
2023-03-26T15:19:09.512Z,93725.00
2023-03-26T15:23:09.356Z,93731.00
2023-03-26T15:27:09.357Z,93731.00
2023-03-26T15:31:09.340Z,93725.00
2023-03-26T15:35:09.279Z,93719.00
2023-03-26T15:39:09.290Z,93695.00
2023-03-26T15:43:09.331Z,93690.00
2023-03-26T15:47:09.267Z,93688.00
2023-03-26T15:51:09.301Z,93662.00
2023-03-26T15:55:09.289Z,93656.00
2023-03-26T15:59:09.331Z,93658.00
2023-03-26T16:03:09.436Z,93664.00
2023-03-26T16:07:09.456Z,93660.00
2023-03-26T16:11:09.397Z,93660.00
2023-03-26T16:15:09.543Z,93664.00
2023-03-26T16:19:09.430Z,93660.00
2023-03-26T16:23:09.482Z,93658.00
2023-03-26T16:27:09.554Z,93668.00
2023-03-26T16:31:23.583Z,93648.00
2023-03-26T16:35:10.584Z,93629.00
2023-03-26T16:39:09.582Z,93627.00
2023-03-26T16:43:09.511Z,93613.00
2023-03-26T16:47:09.452Z,93609.00
2023-03-26T16:51:09.403Z,93592.00
2023-03-26T16:55:09.588Z,93594.00
2023-03-26T16:59:09.634Z,93598.00
2023-03-26T17:03:09.843Z,93621.00
2023-03-26T17:07:09.797Z,93623.00
2023-03-26T17:11:09.879Z,93617.00
2023-03-26T17:15:09.930Z,93613.00
2023-03-26T17:19:10.060Z,93609.00
2023-03-26T17:23:10.195Z,93623.00
2023-03-26T17:27:10.267Z,93623.00
2023-03-26T17:31:10.427Z,93617.00
2023-03-26T17:35:11.512Z,93623.00
2023-03-26T17:39:10.647Z,93617.00
2023-03-26T17:43:10.849Z,93598.00
2023-03-26T17:47:10.973Z,93605.00
2023-03-26T17:51:11.115Z,93598.00
2023-03-26T17:55:11.232Z,93627.00
2023-03-26T17:59:12.471Z,93639.00
2023-03-26T18:03:11.611Z,93652.00
2023-03-26T18:07:11.723Z,93654.00
2023-03-26T18:11:11.880Z,93666.00
2023-03-26T18:15:12.068Z,93672.00
2023-03-26T18:19:12.240Z,93690.00
2023-03-26T18:23:12.457Z,93691.00
2023-03-26T18:27:12.825Z,93641.00
2023-03-26T18:31:12.857Z,93627.00
2023-03-26T18:35:13.082Z,93639.00
2023-03-26T18:39:13.089Z,93641.00
2023-03-26T18:43:19.411Z,93623.00
2023-03-26T18:47:13.969Z,93623.00
2023-03-26T18:51:12.959Z,93619.00
2023-03-26T18:55:13.192Z,93615.00
2023-03-26T18:59:13.111Z,93623.00
2023-03-26T19:03:13.082Z,93627.00
2023-03-26T19:07:12.955Z,93635.00
2023-03-26T19:11:12.955Z,93629.00
2023-03-26T19:15:12.926Z,93627.00
2023-03-26T19:19:12.945Z,93639.00
2023-03-26T19:23:12.855Z,93646.00
2023-03-26T19:27:12.794Z,93648.00
2023-03-26T19:31:12.799Z,93658.00
2023-03-26T19:35:12.906Z,93654.00
2023-03-26T19:39:12.922Z,93648.00
2023-03-26T19:43:12.901Z,93652.00
2023-03-26T19:47:12.846Z,93652.00
2023-03-26T19:51:12.832Z,93641.00
2023-03-26T19:55:12.752Z,93633.00
2023-03-26T19:59:12.705Z,93631.00
2023-03-26T20:03:12.747Z,93635.00
2023-03-26T20:07:12.654Z,93631.00
2023-03-26T20:11:12.593Z,93629.00
2023-03-26T20:15:19.385Z,93625.00
2023-03-26T20:19:13.640Z,93631.00
2023-03-26T20:23:12.581Z,93635.00
2023-03-26T20:27:12.672Z,93635.00
2023-03-26T20:31:12.888Z,93641.00
2023-03-26T20:35:12.930Z,93641.00
2023-03-26T20:39:12.912Z,93635.00
2023-03-26T20:43:12.943Z,93643.00
2023-03-26T20:47:12.976Z,93633.00
2023-03-26T20:51:13.079Z,93631.00
2023-03-26T20:55:12.925Z,93633.00
2023-03-26T20:59:13.031Z,93639.00
2023-03-26T21:03:13.012Z,93639.00
2023-03-26T21:07:18.215Z,93635.00
2023-03-26T21:11:13.908Z,93639.00
2023-03-26T21:15:22.816Z,93635.00
2023-03-26T21:19:13.831Z,93635.00
2023-03-26T21:23:12.821Z,93639.00
2023-03-26T21:27:12.767Z,93635.00
2023-03-26T21:31:12.799Z,93637.00
2023-03-26T21:35:12.786Z,93633.00
2023-03-26T21:39:12.663Z,93627.00
2023-03-26T21:43:12.631Z,93629.00
2023-03-26T21:47:12.665Z,93631.00
2023-03-26T21:51:12.570Z,93619.00
2023-03-26T21:55:12.543Z,93621.00
2023-03-26T21:59:12.522Z,93623.00
2023-03-26T22:03:12.505Z,93619.00
2023-03-26T22:07:12.424Z,93621.00
2023-03-26T22:11:12.425Z,93619.00
2023-03-26T22:15:12.361Z,93617.00
2023-03-26T22:19:12.286Z,93617.00
2023-03-26T22:23:12.270Z,93615.00
2023-03-26T22:27:12.250Z,93613.00
2023-03-26T22:31:12.288Z,93607.00
2023-03-26T22:35:12.116Z,93598.00
2023-03-26T22:39:12.145Z,93605.00
2023-03-26T22:43:12.122Z,93592.00
2023-03-26T22:50:57.308Z,93598.00
2023-03-26T22:54:56.919Z,93598.00
2023-03-26T22:58:56.854Z,93586.00
2023-03-26T23:02:56.956Z,93584.00
2023-03-26T23:06:56.853Z,93582.00
2023-03-26T23:10:56.929Z,93586.00
2023-03-26T23:14:56.761Z,93592.00
2023-03-26T23:18:56.730Z,93590.00
2023-03-26T23:22:56.643Z,93592.00
2023-03-26T23:26:56.633Z,93588.00
2023-03-26T23:30:56.758Z,93584.00
2023-03-26T23:34:56.591Z,93586.00
2023-03-26T23:38:56.559Z,93582.00
2023-03-26T23:42:56.474Z,93584.00
2023-03-26T23:46:56.511Z,93582.00
2023-03-26T23:51:03.170Z,93582.00
2023-03-26T23:54:57.450Z,93586.00
2023-03-26T23:58:56.332Z,93592.00
